Time;durP1;ratioP1;P1;durP2;ratioP2;P2;SDS_P1;SDS_P2;PMS_P1;PMS_P2;Temp;Humidity;BMP_temperature;BMP_pressure;BME280_temperature;BME280_humidity;BME280_pressure;Samples;Min_cycle;Max_cycle;Signal;HPM_P1;HPM_P2
2022/11/02 00:00:40;;;;;;;4.67;3.00;;;7.40;99.90;7.30;100962.00;;;;4871857;28;89549;-67
2022/11/02 00:03:06;;;;;;;3.03;2.57;;;7.40;99.90;7.30;100962.00;;;;4876161;28;87906;-67
2022/11/02 00:05:32;;;;;;;5.33;2.10;;;7.40;99.90;7.30;100965.00;;;;4878014;28;108151;-67
2022/11/02 00:07:57;;;;;;;4.03;2.50;;;7.50;99.90;7.40;100964.00;;;;4878826;28;95600;-67
2022/11/02 00:10:24;;;;;;;2.30;2.10;;;7.50;99.90;7.40;100968.00;;;;4876983;28;117970;-67
2022/11/02 00:12:51;;;;;;;3.83;2.23;;;7.50;99.90;7.40;100969.00;;;;4878085;28;87239;-67
2022/11/02 00:15:17;;;;;;;7.33;3.27;;;7.50;99.90;7.40;100958.00;;;;4877765;28;87858;-67
2022/11/02 00:17:58;;;;;;;4.07;3.27;;;7.50;99.90;7.40;100952.00;;;;4876266;28;117256;-67
2022/11/02 00:20:25;;;;;;;7.87;3.17;;;7.60;99.90;7.50;100959.00;;;;4878527;28;89178;-67
2022/11/02 00:22:57;;;;;;;6.43;2.67;;;7.70;99.90;7.60;100967.00;;;;4886673;28;87974;-67
2022/11/02 00:25:24;;;;;;;4.33;3.17;;;7.70;99.90;7.60;100973.00;;;;4875989;28;87949;-67
2022/11/02 00:27:50;;;;;;;3.57;2.47;;;7.70;99.90;7.60;100968.00;;;;4884576;28;111648;-67
2022/11/02 00:30:16;;;;;;;3.47;2.83;;;7.70;99.90;7.60;100967.00;;;;4879979;28;117382;-68
2022/11/02 00:32:41;;;;;;;2.97;2.30;;;7.70;99.90;7.60;100963.00;;;;4879487;28;87921;-68
2022/11/02 00:35:09;;;;;;;2.20;2.00;;;7.70;99.90;7.60;100964.00;;;;4878513;28;109466;-68
2022/11/02 00:37:34;;;;;;;2.30;2.10;;;7.70;99.90;7.50;100962.00;;;;4893855;28;87181;-68
2022/11/02 00:40:00;;;;;;;2.37;2.03;;;7.70;99.90;7.50;100963.00;;;;4877530;28;117255;-68
2022/11/02 00:42:27;;;;;;;1.97;1.87;;;7.70;99.90;7.50;100967.00;;;;4882379;28;87985;-68
2022/11/02 00:44:52;;;;;;;1.70;1.40;;;7.60;99.90;7.50;100971.00;;;;4880723;28;88826;-68
2022/11/02 00:47:18;;;;;;;2.50;2.07;;;7.60;99.90;7.50;100971.00;;;;4876517;28;117947;-68
2022/11/02 00:49:44;;;;;;;10.30;2.37;;;8.10;99.90;7.50;100982.00;;;;4894991;28;103939;-67
2022/11/02 00:52:09;;;;;;;3.77;2.90;;;7.60;99.90;7.50;100971.00;;;;4876495;28;110713;-68
2022/11/02 00:54:35;;;;;;;3.23;2.00;;;7.60;99.90;7.50;100965.00;;;;4881590;28;108046;-68
2022/11/02 00:57:01;;;;;;;2.87;2.00;;;7.80;99.90;7.50;100967.00;;;;4874988;28;115831;-68
2022/11/02 00:59:27;;;;;;;1.73;1.63;;;7.70;99.90;7.60;100964.00;;;;4879319;28;96881;-68
2022/11/02 01:01:52;;;;;;;2.57;1.73;;;7.70;99.90;7.70;100972.00;;;;4878325;28;109759;-68
2022/11/02 01:04:18;;;;;;;2.57;2.07;;;7.80;99.90;7.70;100970.00;;;;4882628;28;107498;-68
2022/11/02 01:06:45;;;;;;;2.43;1.47;;;7.80;99.90;7.80;100967.00;;;;4883142;28;118823;-68
2022/11/02 01:09:12;;;;;;;2.03;1.50;;;7.90;99.90;7.90;100972.00;;;;4877123;28;88913;-68
2022/11/02 01:11:40;;;;;;;5.03;2.13;;;7.90;99.90;7.90;100973.00;;;;4863640;28;88026;-67
2022/11/02 01:14:06;;;;;;;1.60;1.43;;;8.00;99.90;8.00;100973.00;;;;4878489;28;99165;-67
2022/11/02 01:16:32;;;;;;;2.93;1.70;;;8.00;99.90;8.10;100968.00;;;;4879982;28;110491;-67
2022/11/02 01:18:58;;;;;;;1.90;1.73;;;8.20;99.90;8.10;100977.00;;;;4882573;28;114140;-67
2022/11/02 01:21:25;;;;;;;7.57;2.00;;;8.20;99.90;8.20;100974.00;;;;4876969;28;92396;-67
2022/11/02 01:23:50;;;;;;;2.50;1.70;;;8.30;99.90;8.30;100967.00;;;;4885323;28;109512;-67
2022/11/02 01:26:17;;;;;;;1.93;1.60;;;8.30;99.90;8.30;100969.00;;;;4882460;28;87139;-67
2022/11/02 01:28:43;;;;;;;2.53;2.10;;;8.40;99.90;8.40;100962.00;;;;4876448;28;92059;-67
2022/11/02 01:31:10;;;;;;;3.10;2.20;;;8.40;99.90;8.40;100963.00;;;;4876541;28;108939;-66
2022/11/02 01:33:36;;;;;;;2.27;1.30;;;8.50;99.90;8.40;100976.00;;;;4895566;28;88908;-67
2022/11/02 01:36:05;;;;;;;1.67;1.17;;;8.50;99.90;8.40;100968.00;;;;4881216;28;87774;-67
2022/11/02 01:38:32;;;;;;;0.80;0.73;;;8.50;99.90;8.50;100962.00;;;;4886518;28;87903;-67
2022/11/02 01:40:58;;;;;;;4.63;1.53;;;8.60;99.90;8.60;100969.00;;;;4882246;28;100161;-68
2022/11/02 01:43:30;;;;;;;1.60;1.10;;;8.60;99.90;8.60;100957.00;;;;4883747;28;100708;-67
2022/11/02 01:46:10;;;;;;;1.00;0.90;;;8.70;99.90;8.60;100961.00;;;;4883268;28;88817;-67
2022/11/02 01:48:46;;;;;;;3.57;1.53;;;8.70;99.90;8.60;100959.00;;;;4882080;28;96731;-67
2022/11/02 01:51:25;;;;;;;1.57;1.47;;;8.70;99.90;8.70;100965.00;;;;4882066;28;87108;-68
2022/11/02 01:53:54;;;;;;;3.60;1.30;;;8.70;99.90;8.70;100953.00;;;;4878981;28;88019;-67
2022/11/02 01:56:23;;;;;;;1.50;1.40;;;8.70;99.90;8.70;100950.00;;;;4878921;28;99304;-67
2022/11/02 01:58:57;;;;;;;2.53;1.87;;;8.80;99.90;8.70;100961.00;;;;4879809;28;107600;-68
2022/11/02 02:01:24;;;;;;;3.20;2.03;;;8.80;99.90;8.70;100961.00;;;;4884552;28;96438;-67
2022/11/02 02:03:52;;;;;;;1.70;1.40;;;8.80;99.90;8.70;100959.00;;;;4884399;28;87784;-66
2022/11/02 02:06:17;;;;;;;2.50;1.67;;;8.70;99.90;8.60;100962.00;;;;4879123;28;89069;-67
2022/11/02 02:08:49;;;;;;;1.70;1.60;;;8.80;99.90;8.60;100960.00;;;;4883270;28;94903;-66
2022/11/02 02:11:32;;;;;;;4.07;1.63;;;8.70;99.90;8.50;100950.00;;;;4879488;28;110293;-67
2022/11/02 02:14:14;;;;;;;2.17;1.80;;;8.60;99.90;8.40;100955.00;;;;4879007;28;93578;-67
2022/11/02 02:17:26;;;;;;;1.23;1.13;;;8.60;99.90;8.40;100940.00;;;;4897359;28;87990;-67
2022/11/02 02:20:41;;;;;;;2.93;1.60;;;8.30;99.90;8.40;100943.00;;;;4878277;28;87660;-67
2022/11/02 02:23:18;;;;;;;3.73;1.23;;;8.50;99.90;8.40;100950.00;;;;4901610;28;102290;-66
2022/11/02 02:26:34;;;;;;;1.20;0.87;;;8.50;99.90;8.40;100947.00;;;;4888617;28;92566;-67
2022/11/02 02:29:09;;;;;;;2.50;2.10;;;8.50;99.90;8.40;100938.00;;;;4896419;28;90188;-68
2022/11/02 02:31:42;;;;;;;1.80;1.40;;;8.50;99.90;8.40;100942.00;;;;4879591;28;108313;-68
2022/11/02 02:34:27;;;;;;;1.73;1.60;;;8.50;99.90;8.40;100945.00;;;;4864262;28;87802;-68
2022/11/02 02:37:15;;;;;;;2.53;2.33;;;8.50;99.90;8.40;100947.00;;;;4883315;28;87822;-68
2022/11/02 02:40:10;;;;;;;3.60;1.73;;;8.50;99.90;8.40;100951.00;;;;4877710;28;110186;-69
2022/11/02 02:42:45;;;;;;;5.07;2.27;;;8.50;99.90;8.40;100951.00;;;;4877104;28;88154;-68
2022/11/02 02:45:19;;;;;;;4.57;1.63;;;8.50;99.90;8.40;100944.00;;;;4878198;28;96278;-67
2022/11/02 02:48:09;;;;;;;2.53;1.63;;;8.50;99.90;8.40;100945.00;;;;4876821;28;103078;-68
2022/11/02 02:51:00;;;;;;;2.13;1.60;;;8.50;99.90;8.40;100946.00;;;;4861905;28;104218;-70
2022/11/02 02:53:43;;;;;;;1.03;0.93;;;8.50;99.90;8.40;100939.00;;;;4892924;28;110878;-67
2022/11/02 02:56:10;;;;;;;2.53;1.33;;;8.50;99.90;8.40;100937.00;;;;4895273;28;87906;-68
2022/11/02 02:58:46;;;;;;;1.53;1.43;;;8.50;99.90;8.40;100939.00;;;;4881488;28;109185;-69
2022/11/02 03:01:14;;;;;;;3.47;1.00;;;8.50;99.90;8.40;100932.00;;;;4874571;28;110892;-68
2022/11/02 03:03:42;;;;;;;1.90;1.70;;;8.50;99.90;8.40;100937.00;;;;4882674;28;117566;-69
2022/11/02 03:06:21;;;;;;;2.90;1.13;;;8.50;99.90;8.40;100938.00;;;;4884817;28;87897;-68
2022/11/02 03:09:23;;;;;;;2.97;1.80;;;8.50;99.90;8.30;100940.00;;;;4892193;28;95440;-69
2022/11/02 03:12:05;;;;;;;2.60;1.27;;;8.40;99.90;8.30;100945.00;;;;4873075;28;109267;-68
2022/11/02 03:14:56;;;;;;;2.33;1.33;;;8.40;99.90;8.30;100941.00;;;;4877675;28;112011;-68
2022/11/02 03:17:55;;;;;;;1.60;1.50;;;8.40;99.90;8.30;100945.00;;;;4885004;28;88271;-68
2022/11/02 03:20:27;;;;;;;1.77;1.67;;;8.40;99.90;8.30;100949.00;;;;4870679;28;96162;-69
2022/11/02 03:23:25;;;;;;;2.20;1.40;;;8.40;99.90;8.20;100948.00;;;;4878609;28;103067;-70
2022/11/02 03:26:08;;;;;;;2.23;1.23;;;8.40;99.90;8.20;100947.00;;;;4877633;28;87923;-70
2022/11/02 03:28:54;;;;;;;2.67;0.80;;;8.30;99.90;8.20;100955.00;;;;4897337;28;105470;-69
2022/11/02 03:31:54;;;;;;;0.90;0.90;;;8.30;99.90;8.20;100947.00;;;;4874968;28;98539;-67
2022/11/02 03:34:43;;;;;;;1.73;1.30;;;8.30;99.90;8.20;100947.00;;;;4877516;28;87941;-68
2022/11/02 03:37:17;;;;;;;2.47;2.13;;;8.30;99.90;8.20;100939.00;;;;4881081;28;104873;-67
2022/11/02 03:40:07;;;;;;;2.70;1.20;;;8.30;99.90;8.10;100940.00;;;;4881610;28;95046;-67
2022/11/02 03:42:35;;;;;;;2.47;1.50;;;8.30;99.90;8.10;100945.00;;;;4885978;28;88074;-68
2022/11/02 03:45:16;;;;;;;1.00;0.70;;;8.30;99.90;8.10;100949.00;;;;4876262;28;118818;-68
2022/11/02 03:47:48;;;;;;;1.57;0.90;;;7.80;99.90;8.10;100943.00;;;;4880686;28;110425;-68
2022/11/02 03:50:19;;;;;;;2.07;0.93;;;8.20;99.90;8.10;100939.00;;;;4874451;28;92378;-67
2022/11/02 03:52:47;;;;;;;1.40;1.30;;;8.20;99.90;8.10;100940.00;;;;4895016;28;87918;-68
2022/11/02 03:55:19;;;;;;;1.77;1.17;;;8.20;99.90;8.10;100938.00;;;;4878267;28;107727;-67
2022/11/02 03:57:50;;;;;;;1.63;0.80;;;8.20;99.90;8.10;100941.00;;;;4879783;28;88734;-67
2022/11/02 04:00:23;;;;;;;0.73;0.73;;;8.30;99.90;8.00;100946.00;;;;4895111;28;88077;-68
2022/11/02 04:02:56;;;;;;;5.73;1.60;;;8.10;99.90;8.00;100957.00;;;;4881135;28;87884;-67
2022/11/02 04:05:34;;;;;;;2.40;0.87;;;8.10;99.90;8.00;100946.00;;;;4873720;28;108670;-69
2022/11/02 04:16:14;;;;;;;3.20;1.53;;;8.20;99.90;8.10;100962.00;;;;4875969;28;87747;-68
2022/11/02 04:21:25;;;;;;;3.07;1.10;;;8.20;99.90;8.10;100938.00;;;;4877769;28;87938;-68
2022/11/02 04:26:35;;;;;;;1.50;1.03;;;8.20;99.90;8.20;100952.00;;;;4880146;28;88202;-69
2022/11/02 04:29:01;;;;;;;0.77;0.67;;;8.30;99.90;8.20;100945.00;;;;4882878;28;103336;-67
2022/11/02 04:31:27;;;;;;;3.40;1.17;;;8.30;99.90;8.20;100942.00;;;;4876351;28;87144;-68
2022/11/02 04:33:53;;;;;;;1.67;0.97;;;8.30;99.90;8.20;100941.00;;;;4877284;28;88370;-68
2022/11/02 04:36:19;;;;;;;0.80;0.80;;;8.30;99.90;8.20;100943.00;;;;4877839;28;116164;-68
2022/11/02 04:38:44;;;;;;;6.40;0.80;;;8.30;99.90;8.20;100945.00;;;;4879894;28;102716;-70
2022/11/02 04:43:59;;;;;;;2.93;1.30;;;8.30;99.90;8.20;100925.00;;;;4879060;28;87797;-68
2022/11/02 04:46:30;;;;;;;1.27;1.17;;;8.30;99.90;8.30;100934.00;;;;4883825;28;88009;-68
2022/11/02 04:48:56;;;;;;;0.93;0.93;;;8.30;99.90;8.30;100932.00;;;;4876368;28;94387;-69
2022/11/02 04:51:24;;;;;;;1.03;0.93;;;8.30;99.90;8.30;100934.00;;;;4881400;28;94591;-69
2022/11/02 04:53:52;;;;;;;2.20;1.00;;;8.30;99.90;8.30;100935.00;;;;4877006;28;102530;-67
2022/11/02 04:56:18;;;;;;;0.97;0.87;;;8.30;99.90;8.30;100932.00;;;;4880113;28;91541;-69
2022/11/02 04:58:52;;;;;;;2.73;1.30;;;8.40;99.90;8.30;100938.00;;;;4879132;28;116507;-67
2022/11/02 05:01:20;;;;;;;1.33;1.10;;;8.40;99.90;8.30;100931.00;;;;4878852;28;87813;-67
2022/11/02 05:03:49;;;;;;;1.33;1.00;;;8.40;99.90;8.30;100938.00;;;;4878829;28;88744;-69
2022/11/02 05:06:17;;;;;;;1.50;0.70;;;8.30;99.90;8.30;100928.00;;;;4881145;28;89309;-68
2022/11/02 05:08:43;;;;;;;0.77;0.70;;;8.30;99.90;8.30;100930.00;;;;4882256;28;104091;-67
2022/11/02 05:11:09;;;;;;;1.43;0.83;;;8.40;99.90;8.40;100932.00;;;;4878093;28;110846;-68
2022/11/02 05:13:37;;;;;;;0.87;0.80;;;8.40;99.90;8.50;100938.00;;;;4877527;28;87864;-67
2022/11/02 05:16:03;;;;;;;3.93;1.27;;;8.50;99.90;8.50;100936.00;;;;4880325;28;89282;-68
2022/11/02 05:18:28;;;;;;;1.47;1.00;;;8.50;99.90;8.60;100936.00;;;;4885174;28;106571;-66
2022/11/02 05:20:58;;;;;;;0.63;0.63;;;8.60;99.90;8.60;100931.00;;;;4883156;28;87146;-66
2022/11/02 05:23:24;;;;;;;2.80;0.90;;;8.70;99.90;8.70;100940.00;;;;4886755;28;87705;-67
2022/11/02 05:26:06;;;;;;;0.67;0.67;;;8.70;99.90;8.80;100944.00;;;;4878537;28;118140;-66
2022/11/02 05:28:32;;;;;;;6.67;1.27;;;8.80;99.90;8.90;100950.00;;;;4888054;28;88806;-67
2022/11/02 05:31:00;;;;;;;0.63;0.63;;;8.90;99.90;8.90;100937.00;;;;4884023;28;95149;-66
2022/11/02 05:33:30;;;;;;;1.27;0.57;;;9.00;99.90;9.00;100946.00;;;;4887647;28;87906;-67
2022/11/02 05:35:58;;;;;;;1.00;0.90;;;9.00;99.90;9.10;100948.00;;;;4875667;28;88199;-68
2022/11/02 05:38:24;;;;;;;1.27;0.90;;;9.10;99.90;9.20;100942.00;;;;4879729;28;93919;-67
2022/11/02 05:40:52;;;;;;;2.70;1.13;;;9.90;99.90;9.30;100948.00;;;;4886202;28;87773;-66
2022/11/02 05:43:18;;;;;;;5.10;1.10;;;9.30;99.90;9.30;100943.00;;;;4888363;28;87520;-66
2022/11/02 05:45:43;;;;;;;0.40;0.40;;;9.30;99.90;9.30;100950.00;;;;4882109;28;109113;-66
2022/11/02 05:48:09;;;;;;;0.60;0.60;;;9.40;99.90;9.40;100948.00;;;;4882713;28;116804;-65
2022/11/02 05:50:35;;;;;;;1.87;0.87;;;9.40;99.90;9.40;100949.00;;;;4884258;28;99140;-67
2022/11/02 05:53:01;;;;;;;1.17;0.80;;;9.40;99.90;9.40;100952.00;;;;4894271;28;109126;-68
2022/11/02 05:55:26;;;;;;;0.93;0.70;;;9.50;99.90;9.40;100960.00;;;;4883653;28;89216;-65
2022/11/02 05:57:54;;;;;;;3.20;1.00;;;9.50;99.90;9.40;100960.00;;;;4877581;28;117429;-66
2022/11/02 06:00:21;;;;;;;2.67;1.03;;;9.50;99.90;9.40;100973.00;;;;4880468;28;87942;-67
2022/11/02 06:02:48;;;;;;;2.13;1.00;;;9.50;99.90;9.40;100961.00;;;;4886510;28;87742;-65
2022/11/02 06:05:14;;;;;;;3.10;1.13;;;9.40;99.90;9.30;100968.00;;;;4879580;28;116860;-66
2022/11/02 06:07:39;;;;;;;1.57;1.10;;;9.90;99.90;9.30;100963.00;;;;4875776;28;117230;-66
2022/11/02 06:10:06;;;;;;;2.13;1.13;;;9.40;99.90;9.30;100963.00;;;;4883220;28;89743;-65
2022/11/02 06:12:32;;;;;;;0.80;0.70;;;9.40;99.90;9.30;100963.00;;;;4882633;28;87852;-67
2022/11/02 06:14:58;;;;;;;0.50;0.50;;;9.30;99.90;9.30;100972.00;;;;4878160;28;103315;-66
2022/11/02 06:17:23;;;;;;;6.07;1.00;;;9.30;99.90;9.20;100964.00;;;;4881265;28;117129;-66
2022/11/02 06:19:49;;;;;;;0.50;0.50;;;9.30;99.90;9.20;100969.00;;;;4877567;28;87958;-66
2022/11/02 06:22:15;;;;;;;2.87;1.13;;;9.30;99.90;9.20;100961.00;;;;4880109;28;87772;-65
2022/11/02 06:24:40;;;;;;;1.17;0.73;;;9.30;99.90;9.20;100962.00;;;;4875696;28;116519;-65
2022/11/02 06:27:06;;;;;;;0.63;0.53;;;9.20;99.90;9.20;100968.00;;;;4870809;28;117038;-65
2022/11/02 06:29:32;;;;;;;0.73;0.60;;;9.20;99.90;9.20;100971.00;;;;4885776;28;108808;-65
2022/11/02 06:31:57;;;;;;;2.07;0.87;;;9.30;99.90;9.20;100967.00;;;;4882083;28;99427;-66
2022/11/02 06:34:23;;;;;;;2.83;1.33;;;9.30;99.90;9.20;100968.00;;;;4875759;28;87382;-66
2022/11/02 06:36:49;;;;;;;1.33;1.03;;;9.30;99.90;9.20;100967.00;;;;4877622;28;116405;-66
2022/11/02 06:39:14;;;;;;;0.93;0.90;;;9.30;99.90;9.30;100974.00;;;;4877243;28;110736;-66
2022/11/02 06:41:40;;;;;;;7.33;1.33;;;9.30;99.90;9.40;100977.00;;;;4879107;28;88742;-66
2022/11/02 06:44:06;;;;;;;2.63;1.17;;;9.40;99.90;9.60;100974.00;;;;4880414;28;117632;-67
2022/11/02 06:46:31;;;;;;;1.50;0.90;;;9.60;99.90;9.80;100969.00;;;;4876805;28;116910;-66
2022/11/02 06:48:57;;;;;;;0.77;0.57;;;9.80;99.90;10.00;100969.00;;;;4883333;28;109006;-66
2022/11/02 06:51:23;;;;;;;2.17;0.80;;;9.90;99.90;10.20;100962.00;;;;4877230;28;87948;-66
2022/11/02 06:53:49;;;;;;;1.17;0.87;;;10.10;99.90;10.40;100973.00;;;;4875904;28;116703;-66
2022/11/02 06:56:15;;;;;;;2.40;1.00;;;10.30;99.90;10.60;100973.00;;;;4872809;28;116890;-66
2022/11/02 06:58:40;;;;;;;2.30;0.97;;;10.50;99.90;10.80;100972.00;;;;4880047;28;87059;-65
2022/11/02 07:01:07;;;;;;;0.87;0.73;;;10.70;99.90;11.00;100962.00;;;;4876759;28;108896;-66
2022/11/02 07:03:34;;;;;;;0.40;0.40;;;10.90;99.90;11.10;100964.00;;;;4872018;28;117993;-66
2022/11/02 07:06:00;;;;;;;7.53;1.40;;;11.10;99.90;11.30;100964.00;;;;4877174;28;96311;-65
2022/11/02 07:08:26;;;;;;;3.50;1.30;;;11.30;99.90;11.30;100969.00;;;;4874991;28;111726;-66
2022/11/02 07:10:52;;;;;;;1.23;0.83;;;11.40;99.90;11.30;100965.00;;;;4870497;28;88041;-65
2022/11/02 07:13:18;;;;;;;1.07;1.00;;;11.40;99.90;11.30;100983.00;;;;4873980;28;89590;-65
2022/11/02 07:15:44;;;;;;;3.60;0.93;;;11.40;99.90;11.30;100983.00;;;;4876609;28;88576;-65
2022/11/02 07:18:10;;;;;;;1.33;1.10;;;11.30;99.90;11.30;100987.00;;;;4875369;28;110468;-65
2022/11/02 07:20:35;;;;;;;3.67;1.53;;;11.40;99.90;11.20;100983.00;;;;4876973;28;97413;-66
2022/11/02 07:23:03;;;;;;;1.03;0.80;;;11.30;99.90;11.20;100990.00;;;;4881172;28;95649;-65
2022/11/02 07:25:29;;;;;;;2.33;0.83;;;11.30;99.90;11.20;100995.00;;;;4887140;28;87955;-65
2022/11/02 07:27:58;;;;;;;0.83;0.83;;;11.20;99.90;11.20;101001.00;;;;4874127;28;87804;-65
2022/11/02 07:30:25;;;;;;;3.77;1.17;;;11.20;99.90;11.30;101002.00;;;;4875791;28;88947;-64
2022/11/02 07:32:51;;;;;;;1.70;0.93;;;11.30;99.90;11.50;101002.00;;;;4874833;28;87863;-65
2022/11/02 07:35:17;;;;;;;5.83;1.30;;;11.50;99.90;11.80;100991.00;;;;4878150;28;117634;-64
2022/11/02 07:37:43;;;;;;;3.03;1.33;;;11.70;99.90;12.00;101000.00;;;;4874822;28;110037;-65
2022/11/02 07:40:11;;;;;;;1.07;0.53;;;12.00;99.90;12.20;100995.00;;;;4879231;28;87927;-66
2022/11/02 07:42:44;;;;;;;3.33;1.23;;;12.20;99.90;12.50;101001.00;;;;4876716;28;97842;-66
2022/11/02 07:45:11;;;;;;;1.70;1.17;;;12.40;99.90;12.70;100994.00;;;;4877659;28;87901;-66
2022/11/02 07:47:44;;;;;;;2.30;1.10;;;12.60;99.90;12.80;100993.00;;;;4876225;28;87544;-66
2022/11/02 07:50:15;;;;;;;2.27;0.73;;;12.80;99.90;13.00;101008.00;;;;4875614;28;89151;-66
2022/11/02 07:52:46;;;;;;;2.20;0.80;;;12.90;99.90;13.20;101017.00;;;;4877396;28;88554;-65
2022/11/02 07:55:14;;;;;;;1.40;1.00;;;13.20;99.90;13.40;100996.00;;;;4879065;28;88895;-66
2022/11/02 07:57:39;;;;;;;4.40;1.13;;;13.30;99.90;13.60;101009.00;;;;4880094;28;101223;-66
2022/11/02 08:00:06;;;;;;;5.63;1.47;;;13.50;99.90;13.80;100998.00;;;;4874431;28;108361;-66
2022/11/02 08:02:31;;;;;;;1.23;0.97;;;13.70;99.90;14.00;101001.00;;;;4878562;28;105386;-65
2022/11/02 08:04:57;;;;;;;2.33;0.57;;;13.90;99.90;14.20;101005.00;;;;4877036;28;116516;-65
2022/11/02 08:07:23;;;;;;;4.27;0.90;;;14.10;99.90;14.30;101002.00;;;;4876996;28;110609;-64
2022/11/02 08:09:48;;;;;;;1.00;0.90;;;14.20;99.90;14.50;101013.00;;;;4874685;28;109003;-65
2022/11/02 08:12:14;;;;;;;3.17;1.03;;;14.40;99.90;14.60;101004.00;;;;4875944;28;115912;-65
2022/11/02 08:14:40;;;;;;;0.73;0.70;;;14.50;99.90;14.80;101008.00;;;;4874133;28;109108;-67
2022/11/02 08:17:05;;;;;;;5.30;0.73;;;14.70;99.90;14.90;101015.00;;;;4878265;28;110341;-65
2022/11/02 08:19:31;;;;;;;0.60;0.50;;;14.80;99.90;15.00;101022.00;;;;4877888;28;107712;-64
2022/11/02 08:21:57;;;;;;;0.93;0.83;;;14.90;99.90;15.00;101010.00;;;;4874263;28;116259;-64
2022/11/02 08:24:23;;;;;;;2.70;0.97;;;15.00;99.90;15.10;101014.00;;;;4882023;28;88177;-65
2022/11/02 08:26:48;;;;;;;1.77;1.23;;;15.00;99.90;15.20;101015.00;;;;4875488;28;87883;-66
2022/11/02 08:29:14;;;;;;;0.63;0.63;;;15.10;99.90;15.40;101013.00;;;;4874467;28;107806;-64
2022/11/02 08:31:39;;;;;;;5.40;0.97;;;15.30;99.90;15.40;101022.00;;;;4873469;28;117939;-64
2022/11/02 08:34:05;;;;;;;6.32;0.90;;;15.40;99.80;15.50;101013.00;;;;4873444;28;117019;-65
2022/11/02 08:36:34;;;;;;;1.33;0.73;;;15.50;99.40;15.60;101017.00;;;;4875788;28;109953;-65
2022/11/02 08:38:59;;;;;;;3.50;1.00;;;15.50;98.70;15.60;101026.00;;;;4879701;28;99656;-66
2022/11/02 08:41:25;;;;;;;3.38;1.40;;;15.60;98.40;15.80;101025.00;;;;4878792;28;116657;-64
2022/11/02 08:43:51;;;;;;;0.93;0.68;;;15.70;98.00;15.90;101027.00;;;;4874111;28;116316;-65
2022/11/02 08:46:16;;;;;;;1.02;0.88;;;15.80;98.10;16.00;101030.00;;;;4877791;28;110976;-66
2022/11/02 08:48:42;;;;;;;0.90;0.68;;;15.90;98.10;16.20;101019.00;;;;4878191;28;107801;-65
2022/11/02 08:51:08;;;;;;;1.88;0.57;;;16.10;98.00;16.40;101023.00;;;;4877841;28;88077;-65
2022/11/02 08:53:34;;;;;;;4.00;1.00;;;16.20;97.90;16.40;101029.00;;;;4873661;28;88005;-65
2022/11/02 08:56:00;;;;;;;3.95;1.17;;;16.30;96.90;16.40;101029.00;;;;4873541;28;110673;-66
2022/11/02 08:58:26;;;;;;;2.35;0.85;;;16.40;96.80;16.30;101030.00;;;;4876714;28;87691;-65
2022/11/02 09:00:52;;;;;;;2.45;0.90;;;16.40;95.80;16.30;101027.00;;;;4870182;28;116804;-65
2022/11/02 09:03:19;;;;;;;1.75;0.82;;;16.30;95.70;16.40;101027.00;;;;4876824;28;87905;-65
2022/11/02 09:05:46;;;;;;;1.70;0.82;;;16.30;96.20;16.50;101024.00;;;;4878019;28;88101;-64
2022/11/02 09:08:18;;;;;;;2.40;1.02;;;16.40;96.00;16.80;101034.00;;;;4876908;28;89108;-64
2022/11/02 09:10:46;;;;;;;4.03;0.82;;;16.60;95.50;16.90;101031.00;;;;4873708;28;88772;-64
2022/11/02 09:13:14;;;;;;;4.40;1.10;;;16.70;95.40;17.10;101015.00;;;;4881436;28;88836;-65
2022/11/02 09:15:40;;;;;;;4.90;1.13;;;16.90;94.70;17.20;101035.00;;;;4877571;28;87936;-65
2022/11/02 09:18:07;;;;;;;5.30;0.93;;;17.00;95.00;17.30;101029.00;;;;4879257;28;88887;-65
2022/11/02 09:20:34;;;;;;;1.25;1.15;;;17.20;94.20;17.20;101037.00;;;;4878469;28;88138;-65
2022/11/02 09:23:00;;;;;;;3.58;0.95;;;17.20;93.70;17.20;101034.00;;;;4875498;28;93093;-65
2022/11/02 09:33:01;;;;;;;5.78;1.27;;;17.10;93.90;17.10;101028.00;;;;4872011;28;118111;-65
2022/11/02 09:35:30;;;;;;;2.92;0.65;;;17.00;94.20;17.20;101036.00;;;;4880859;28;103411;-65
2022/11/02 09:37:56;;;;;;;4.95;1.00;;;17.10;93.90;17.20;101029.00;;;;4879671;28;99191;-65
2022/11/02 09:40:35;;;;;;;0.52;0.50;;;17.10;93.70;17.20;101038.00;;;;4878909;28;119126;-65
2022/11/02 09:43:07;;;;;;;5.40;1.42;;;17.10;94.00;17.40;101035.00;;;;4878270;28;89677;-66
2022/11/02 09:46:05;;;;;;;1.48;0.73;;;17.20;94.20;17.70;101049.00;;;;4875848;28;87951;-65
2022/11/02 09:48:39;;;;;;;1.10;0.55;;;17.40;94.20;18.10;101047.00;;;;4878159;28;87849;-66
2022/11/02 09:51:14;;;;;;;2.40;0.57;;;17.80;93.50;18.20;101040.00;;;;4884974;28;87141;-65
2022/11/02 09:54:07;;;;;;;0.45;0.45;;;18.00;92.80;18.40;101058.00;;;;4890854;28;87867;-66
2022/11/02 09:56:34;;;;;;;4.18;0.80;;;18.00;91.50;18.20;101053.00;;;;4875671;28;88188;-65
2022/11/02 09:59:10;;;;;;;7.22;0.88;;;18.10;91.10;17.90;101048.00;;;;4881868;28;109448;-64
2022/11/02 10:01:50;;;;;;;3.28;0.80;;;17.90;91.20;17.50;101052.00;;;;4875785;28;112006;-65
2022/11/02 10:04:51;;;;;;;2.40;0.77;;;17.60;91.40;17.30;101050.00;;;;4879196;28;101294;-65
2022/11/02 10:07:49;;;;;;;2.08;0.82;;;17.30;92.10;17.00;101067.00;;;;4880235;28;87787;-64
2022/11/02 10:10:37;;;;;;;2.30;0.52;;;17.10;92.80;16.90;101055.00;;;;4875412;28;87689;-65
2022/11/02 10:13:43;;;;;;;0.57;0.47;;;16.90;93.20;16.90;101080.00;;;;4878872;28;88897;-65
2022/11/02 10:16:22;;;;;;;3.15;1.08;;;16.80;94.00;16.90;101060.00;;;;4866611;28;109077;-66
2022/11/02 10:18:51;;;;;;;3.30;0.77;;;16.80;94.00;16.90;101056.00;;;;4883621;28;95348;-64
2022/11/02 10:21:27;;;;;;;3.05;0.95;;;16.90;93.60;17.00;101059.00;;;;4879237;28;92505;-66
2022/11/02 10:23:55;;;;;;;0.68;0.63;;;16.90;93.60;17.30;101068.00;;;;4877759;28;103928;-65
2022/11/02 10:26:28;;;;;;;3.53;1.05;;;17.10;93.50;17.60;101077.00;;;;4880221;28;88747;-65
2022/11/02 10:29:02;;;;;;;5.03;0.90;;;17.30;93.30;17.70;101066.00;;;;4878720;28;87677;-64
2022/11/02 10:31:33;;;;;;;2.53;1.10;;;17.50;91.10;17.70;101069.00;;;;4875423;28;99966;-65
2022/11/02 10:34:19;;;;;;;2.78;1.10;;;17.60;91.10;17.90;101068.00;;;;4876326;28;115626;-64
2022/11/02 10:37:24;;;;;;;1.33;0.63;;;17.70;91.00;17.90;101064.00;;;;4878514;28;87978;-65
2022/11/02 10:40:15;;;;;;;2.70;1.05;;;17.70;90.90;18.10;101060.00;;;;4881625;28;102315;-66
2022/11/02 10:43:10;;;;;;;0.98;0.80;;;17.90;91.10;18.30;101060.00;;;;4878532;28;87759;-65
2022/11/02 10:45:55;;;;;;;0.80;0.57;;;18.10;89.80;18.40;101066.00;;;;4880014;28;87116;-66
2022/11/02 10:48:41;;;;;;;2.30;1.02;;;18.20;89.10;18.50;101060.00;;;;4880204;28;87861;-66
2022/11/02 10:51:11;;;;;;;1.92;0.65;;;18.30;86.90;18.50;101069.00;;;;4877769;28;88178;-65
2022/11/02 10:53:43;;;;;;;5.25;0.70;;;18.30;86.70;18.50;101061.00;;;;4876074;28;88765;-66
2022/11/02 10:56:20;;;;;;;0.75;0.73;;;18.40;86.60;18.60;101063.00;;;;4876205;28;88615;-65
2022/11/02 10:59:23;;;;;;;3.95;0.88;;;18.40;84.60;18.50;101075.00;;;;4881452;28;88091;-65
2022/11/02 11:02:03;;;;;;;3.88;1.05;;;18.40;83.10;18.50;101070.00;;;;4879828;28;88788;-65
2022/11/02 11:04:31;;;;;;;1.45;0.90;;;18.40;84.10;18.60;101071.00;;;;4881707;28;88196;-66
2022/11/02 11:07:05;;;;;;;1.88;0.57;;;18.40;83.30;18.60;101073.00;;;;4887458;28;87968;-65
2022/11/02 11:09:54;;;;;;;2.03;0.73;;;18.50;83.00;18.70;101075.00;;;;4876515;28;88627;-65
2022/11/02 11:12:32;;;;;;;2.92;0.75;;;18.50;83.60;18.70;101077.00;;;;4892539;28;87167;-65
2022/11/02 11:15:01;;;;;;;1.30;0.50;;;18.60;83.50;18.90;101079.00;;;;4874384;28;96466;-66
2022/11/02 11:17:38;;;;;;;1.60;0.60;;;18.70;84.20;19.10;101059.00;;;;4874812;28;89435;-66
2022/11/02 11:20:25;;;;;;;1.08;0.75;;;18.80;84.60;19.10;101071.00;;;;4873306;28;88852;-65
2022/11/02 11:23:18;;;;;;;1.85;0.68;;;18.90;81.40;18.80;101049.00;;;;4876521;28;100036;-63
2022/11/02 11:26:03;;;;;;;3.47;0.85;;;19.00;79.90;19.10;101078.00;;;;4883261;28;88010;-66
2022/11/02 11:28:41;;;;;;;0.70;0.63;;;18.90;81.90;19.20;101082.00;;;;4871927;28;88703;-64
2022/11/02 11:31:12;;;;;;;1.30;0.82;;;19.00;81.70;19.20;101073.00;;;;4877937;28;88782;-66
2022/11/02 11:33:56;;;;;;;0.88;0.73;;;18.90;79.50;19.30;101081.00;;;;4870921;28;87676;-66
2022/11/02 11:36:32;;;;;;;1.45;0.85;;;19.10;79.70;19.40;101089.00;;;;4878331;28;87822;-65